Latest Weather Observations for Perth Airport

IDW60801

Issued at 7:05 pm WST Tuesday 16 September 2014 (issued every 30 minutes, with the page automatically refreshed every 10 minutes)

About weather observations | Map of weather stations | Latest weather observations for WA | Other Formats
Station Details ID: 009021 Name: PERTH AIRPORT Lat: -31.93 Lon: 115.98 Height: 15.4 m
Data from the previous 72 hours. | See also: Recent months at Perth Airport
Date/Time
WST
Temp
°C
App
Temp
°C
Dew
Point
Rel
Hum
%
Delta-T
°C
Wind Press
QNH
hPa
Press
MSL
hPa
Rain
since 9 am
mm
Dir
 
Spd
km/h
Gust
km/h
Spd
kts
Gust
kts
16/07:00pm 18.9 16.5 9.9 56 4.8 ESE 13 19 7 10 1016.4 - 0.0
16/06:30pm 19.5 17.2 10.4 55 4.9 ESE 13 19 7 10 1016.0 - 0.0
16/06:00pm 20.9 18.4 9.7 48 6.0 ESE 13 19 7 10 1015.9 1015.9 0.0
16/05:30pm 22.6 19.8 8.7 41 7.4 E 13 19 7 10 1015.7 - 0.0
16/05:00pm 23.5 19.7 7.7 36 8.3 ESE 17 22 9 12 1015.6 - 0.0
16/04:30pm 23.8 20.3 7.3 34 8.6 E 15 20 8 11 1015.5 - 0.0
16/04:00pm 24.0 20.2 7.4 34 8.7 E 17 22 9 12 1015.5 - 0.0
16/03:30pm 24.1 20.3 7.5 34 8.7 E 17 28 9 15 1015.6 - 0.0
16/02:30pm 24.0 19.8 8.2 36 8.4 E 20 28 11 15 1015.9 - 0.0
16/02:00pm 24.0 19.9 8.7 37 8.2 E 20 32 11 17 1016.1 - 0.0
16/01:30pm 23.0 18.0 8.0 38 7.9 E 24 32 13 17 1016.4 - 0.0
16/01:00pm 22.7 19.4 8.0 39 7.7 ESE 15 26 8 14 1017.2 - 0.0
16/12:30pm 22.5 18.3 8.3 40 7.5 ESE 20 26 11 14 1017.7 - 0.0
16/12:00pm 21.7 17.3 7.3 39 7.4 E 20 26 11 14 1018.3 1018.3 0.0
16/11:30am 21.2 16.2 7.9 42 6.9 E 24 32 13 17 1018.7 - 0.0
16/11:00am 21.0 16.7 7.9 43 6.8 ESE 20 28 11 15 1019.1 - 0.0
16/10:30am 19.9 15.6 7.8 45 6.2 ESE 20 30 11 16 1019.6 - 0.0
16/10:00am 19.0 14.7 7.8 48 5.7 E 20 33 11 18 1019.9 - 0.0
16/09:30am 17.9 13.6 7.8 51 5.1 ESE 20 35 11 19 1020.2 - 0.0
16/09:00am 16.7 14.1 7.7 55 4.5 E 11 20 6 11 1020.4 1020.4 0.0
16/08:30am 15.4 12.8 7.8 60 3.8 NNE 11 13 6 7 1020.6 - 0.0
16/08:00am 14.0 8.5 7.7 66 3.1 ENE 26 33 14 18 1020.3 - 0.0
16/07:30am 13.0 6.1 7.4 69 2.7 E 33 48 18 26 1020.0 - 0.0
16/07:00am 12.4 4.4 7.4 71 2.4 E 39 54 21 29 1019.8 - 0.0
16/06:42am 11.9 5.3 7.8 76 2.0 E 32 50 17 27 1019.9 - 0.0
16/06:30am 11.9 4.7 7.8 76 2.0 E 35 52 19 28 1019.8 - 0.0
16/06:03am 12.0 4.5 7.9 76 2.0 E 37 56 20 30 1019.8 - 0.0
16/06:00am 12.0 4.9 7.9 76 2.0 E 35 52 19 28 1019.7 1019.7 0.0
16/05:39am 12.2 5.4 7.9 75 2.1 E 33 52 18 28 1019.7 - 0.0
16/05:30am 12.4 6.2 7.7 73 2.3 E 30 44 16 24 1019.9 - 0.0
16/05:00am 12.5 7.1 7.8 73 2.3 E 26 41 14 22 1019.7 - 0.0
16/04:30am 12.5 5.4 8.0 74 2.2 E 35 52 19 28 1019.2 - 0.0
16/04:00am 12.6 5.1 8.1 74 2.2 E 37 50 20 27 1019.1 - 0.0
16/03:30am 13.0 6.2 7.9 71 2.5 E 33 52 18 28 1018.9 - 0.0
16/03:17am 13.1 6.0 8.0 71 2.5 E 35 54 19 29 1018.8 - 0.0
16/03:00am 13.3 6.1 7.8 69 2.7 E 35 50 19 27 1018.4 1018.4 0.0
16/02:30am 13.6 6.4 7.5 66 3.0 E 35 48 19 26 1018.7 - 0.0
16/02:21am 13.8 6.9 7.2 64 3.2 E 33 52 18 28 1018.6 - 0.0
16/02:00am 14.2 7.1 6.5 60 3.7 E 33 48 18 26 1018.9 - 0.0
16/01:30am 14.8 7.8 6.0 55 4.2 E 32 48 17 26 1019.4 - 0.0
16/01:00am 15.2 9.3 6.0 54 4.4 E 26 41 14 22 1019.8 - 0.0
16/12:30am 15.6 10.2 6.3 54 4.5 E 24 39 13 21 1019.9 - 0.0
16/12:00am 15.4 13.1 7.5 59 3.9 SSE 9 15 5 8 1020.3 1020.3 0.0
 
Date/Time
WST
Temp
°C
App
Temp
°C
Dew
Point
Rel
Hum
%
Delta-T
°C
Wind Press
QNH
hPa
Press
MSL
hPa
Rain
since 9 am
mm
Dir
 
Spd
km/h
Gust
km/h
Spd
kts
Gust
kts
15/11:30pm 15.1 12.4 9.0 67 3.1 SSE 13 19 7 10 1020.3 - 0.0
15/11:00pm 15.1 11.1 9.2 68 3.0 ESE 20 28 11 15 1020.5 - 0.0
15/10:30pm 14.0 11.4 10.6 80 1.8 SSW 15 19 8 10 1020.8 - 0.0
15/10:00pm 14.8 12.3 11.0 78 2.0 SSW 15 17 8 9 1021.2 - 0.0
15/09:37pm 14.9 12.4 10.9 77 2.1 S 15 17 8 9 1021.4 - 0.0
15/09:30pm 15.0 12.5 11.0 77 2.1 S 15 17 8 9 1021.5 - 0.0
15/09:00pm 15.6 12.3 10.9 73 2.5 S 19 24 10 13 1021.7 1021.7 0.0
15/08:30pm 15.9 12.1 11.2 73 2.5 S 22 28 12 15 1021.8 - 0.0
15/08:00pm 16.6 11.7 11.2 70 2.9 S 28 33 15 18 1021.7 - 0.0
15/07:30pm 17.1 13.0 11.6 70 3.0 S 24 32 13 17 1021.5 - 0.0
15/07:00pm 17.5 14.2 11.6 68 3.2 SSW 20 28 11 15 1021.3 - 0.0
15/06:30pm 18.0 14.3 11.6 66 3.5 SSW 22 30 12 16 1021.3 - 0.0
15/06:00pm 19.0 15.9 12.1 64 3.8 SSW 20 28 11 15 1021.1 1021.1 0.0
15/05:30pm 20.0 16.5 12.1 60 4.4 SSW 22 28 12 15 1020.9 - 0.0
15/05:00pm 21.0 17.5 12.3 57 4.9 SW 22 28 12 15 1020.7 - 0.0
15/04:30pm 21.3 17.7 12.0 55 5.2 SW 22 30 12 16 1020.4 - 0.0
15/04:00pm 22.0 18.9 12.2 53 5.5 WSW 20 28 11 15 1020.3 - 0.0
15/03:30pm 21.9 18.8 12.3 54 5.4 SW 20 28 11 15 1020.3 - 0.0
15/03:00pm 22.1 19.2 13.0 56 5.2 W 20 33 11 18 1020.3 1020.3 0.0
15/02:30pm 23.2 21.6 10.2 43 7.1 W 9 19 5 10 1020.4 - 0.0
15/02:00pm 22.9 21.4 10.5 45 6.8 SW 9 13 5 7 1020.6 - 0.0
15/01:30pm 22.3 20.4 10.4 47 6.5 S 11 17 6 9 1021.1 - 0.0
15/01:00pm 21.8 20.8 11.1 50 5.9 ESE 7 11 4 6 1021.4 - 0.0
15/12:30pm 22.2 21.1 10.5 47 6.4 NNW 7 13 4 7 1021.6 - 0.0
15/12:00pm 21.4 20.2 11.5 53 5.5 S 9 15 5 8 1022.2 1022.2 0.0
15/11:30am 20.5 19.5 11.0 54 5.2 ESE 7 11 4 6 1022.5 - 0.0
15/11:00am 20.0 18.7 11.2 57 4.8 SSW 9 15 5 8 1023.1 - 0.0
15/10:30am 18.7 17.0 11.1 61 4.1 S 11 17 6 9 1023.6 - 0.0
15/10:00am 18.1 16.9 11.5 65 3.6 SE 9 15 5 8 1024.0 - 0.0
15/09:30am 16.9 15.1 10.9 67 3.2 SE 11 15 6 8 1024.2 - 0.0
15/09:00am 17.1 15.4 11.1 68 3.2 ESE 11 13 6 7 1024.2 1024.3 0.0
15/08:30am 16.0 13.7 11.7 75 2.3 E 15 19 8 10 1024.3 - 0.0
15/08:00am 14.9 13.5 12.1 83 1.5 E 11 15 6 8 1024.3 - 0.0
15/07:30am 12.9 12.3 11.8 93 0.6 E 6 9 3 5 1024.3 - 0.0
15/07:00am 9.2 7.6 8.6 96 0.3 ESE 7 11 4 6 1024.4 - 0.0
15/06:30am 7.8 5.5 7.6 99 0.1 SE 9 13 5 7 1024.2 - 0.0
15/06:00am 7.8 5.5 7.4 97 0.2 S 9 13 5 7 1024.0 1024.1 0.0
15/05:30am 8.1 6.4 7.7 97 0.2 SSE 6 7 3 4 1023.7 - 0.0
15/05:01am 8.9 8.2 8.5 97 0.2 E 2 7 1 4 1023.2 - 0.0
15/04:30am 8.5 8.1 8.1 97 0.2 CALM 0 0 0 0 1023.2 - 0.0
15/04:00am 9.5 7.6 8.9 96 0.3 E 9 9 5 5 1023.1 - 0.0
15/03:30am 8.8 7.1 8.4 97 0.2 ENE 7 9 4 5 1023.3 - 0.0
15/03:00am 9.2 8.9 8.8 97 0.2 CALM 0 - 0 - 1023.4 1023.5 0.0
15/02:30am 9.7 9.5 9.1 96 0.3 CALM 0 - 0 - 1023.5 - 0.0
15/02:00am 9.6 8.3 9.2 97 0.2 SSE 6 7 3 4 1023.6 - 0.0
15/01:30am 10.4 9.1 10.0 97 0.2 S 7 9 4 5 1023.7 - 0.0
15/01:00am 10.3 9.0 9.9 97 0.2 S 7 7 4 4 1023.6 - 0.0
15/12:30am 11.0 9.8 10.2 95 0.4 S 7 9 4 5 1023.6 - 0.0
15/12:00am 11.3 10.4 10.5 95 0.4 SSW 6 7 3 4 1023.7 1023.8 0.0
 
Date/Time
WST
Temp
°C
App
Temp
°C
Dew
Point
Rel
Hum
%
Delta-T
°C
Wind Press
QNH
hPa
Press
MSL
hPa
Rain
since 9 am
mm
Dir
 
Spd
km/h
Gust
km/h
Spd
kts
Gust
kts
14/11:30pm 12.0 10.5 10.6 91 0.7 SSW 9 11 5 6 1023.6 - 0.0
14/11:00pm 12.6 11.3 11.1 91 0.8 S 9 13 5 7 1023.8 - 0.0
14/10:30pm 14.5 13.1 12.3 87 1.2 S 11 15 6 8 1024.0 - 0.0
14/10:00pm 14.8 12.6 12.2 84 1.4 S 15 17 8 9 1024.2 - 0.0
14/09:30pm 15.3 13.1 12.0 81 1.8 S 15 19 8 10 1024.1 - 0.0
14/09:00pm 15.3 13.4 11.8 79 1.9 S 13 17 7 9 1024.2 1024.3 0.0
14/08:30pm 15.8 13.5 11.7 76 2.2 S 15 19 8 10 1024.2 - 0.0
14/08:00pm 16.5 13.9 11.9 74 2.5 SSW 17 19 9 10 1023.8 - 0.0
14/07:30pm 17.1 14.3 11.4 69 3.1 SSW 17 20 9 11 1023.4 - 0.0
14/07:00pm 17.7 14.7 10.8 64 3.7 SSW 17 22 9 12 1023.0 - 0.0
14/06:30pm 18.1 15.1 10.8 62 3.9 SSW 17 24 9 13 1022.8 - 0.0
14/06:00pm 18.7 14.4 10.7 59 4.3 SW 24 32 13 17 1022.5 1022.5 0.0
14/05:30pm 19.8 15.8 10.5 55 5.0 SW 22 30 12 16 1022.3 - 0.0
14/05:00pm 20.5 16.4 10.1 51 5.6 SW 22 28 12 15 1022.0 - 0.0
14/04:30pm 21.2 17.0 9.8 48 6.1 SW 22 30 12 16 1021.8 - 0.0
14/04:00pm 21.7 17.1 9.8 46 6.4 W 24 28 13 15 1021.7 - 0.0
14/03:30pm 22.6 18.0 6.5 35 8.2 SSW 20 28 11 15 1021.5 - 0.0
14/03:00pm 22.2 19.5 7.5 38 7.6 S 11 20 6 11 1021.6 1021.6 0.0
14/02:30pm 22.3 17.4 4.2 30 8.8 SSW 19 22 10 12 1021.6 - 0.0
14/02:00pm 21.6 16.7 4.0 31 8.5 SW 19 24 10 13 1021.8 - 0.0
14/01:30pm 21.8 17.8 4.9 33 8.3 S 15 19 8 10 1021.8 - 0.0
14/01:00pm 21.6 17.3 1.3 26 9.3 SSW 13 20 7 11 1022.1 - 0.0
14/12:30pm 20.9 17.1 1.7 28 8.8 S 11 19 6 10 1022.3 - 0.0
14/12:00pm 20.1 16.6 1.3 28 8.5 NNW 9 13 5 7 1022.7 1022.7 0.0
14/11:30am 19.8 17.1 0.4 27 8.6 ESE 4 9 2 5 1022.9 - 0.0
14/11:00am 19.4 16.7 3.7 35 7.4 SE 7 17 4 9 1023.0 - 0.0
14/10:30am 18.9 15.8 5.6 41 6.5 SE 11 19 6 10 1023.2 - 0.0
14/10:00am 17.8 15.2 7.7 51 5.1 NE 11 15 6 8 1023.4 - 0.0
14/09:30am 16.8 14.8 8.8 59 4.1 ENE 9 13 5 7 1023.6 - 0.0
14/09:00am 15.4 14.0 8.9 65 3.3 ENE 6 9 3 5 1023.6 1023.7 0.0
14/08:30am 13.3 11.7 8.9 74 2.2 NNE 7 9 4 5 1023.5 - 0.0
14/08:00am 11.9 10.5 8.7 81 1.6 ENE 6 7 3 4 1023.4 - 0.0
14/07:30am 10.0 8.9 8.6 91 0.7 NE 4 9 2 5 1023.1 - 0.0
14/07:00am 7.2 5.2 6.1 93 0.5 NNE 6 7 3 4 1022.8 - 0.0
14/06:30am 6.8 4.3 6.4 97 0.2 NNE 9 11 5 6 1022.5 - 0.0
14/06:00am 6.9 4.4 6.7 99 0.1 NE 9 13 5 7 1022.3 1022.3 0.0
14/05:30am 4.3 1.8 3.8 97 0.2 SSE 6 7 3 4 1022.3 - 0.0
14/05:00am 4.8 2.2 4.1 95 0.3 SSE 7 7 4 4 1022.3 - 0.0
14/04:30am 4.8 2.4 4.3 97 0.2 SSE 6 7 3 4 1022.1 - 0.0
14/04:00am 5.0 2.6 4.5 97 0.2 SSE 6 7 3 4 1021.9 - 0.0
14/03:30am 5.4 3.5 4.9 97 0.2 SSE 4 7 2 4 1021.8 - 0.0
14/03:00am 5.9 3.6 5.7 99 0.1 SSE 7 9 4 5 1021.7 1021.7 0.0
14/02:30am 6.2 3.9 5.7 97 0.2 SSE 7 9 4 5 1021.7 - 0.0
14/02:00am 6.2 5.2 5.7 97 0.2 CALM 0 0 0 0 1022.0 - 0.0
14/01:30am 6.5 5.6 6.1 97 0.2 CALM 0 0 0 0 1022.1 - 0.0
14/01:00am 6.9 6.1 6.7 99 0.1 CALM 0 0 0 0 1022.3 - 0.0
14/12:30am 7.3 5.3 6.9 97 0.2 S 7 9 4 5 1022.5 - 0.0
14/12:00am 7.5 6.8 6.8 95 0.3 CALM 0 7 0 4 1022.3 1022.3 0.0
 
Date/Time
WST
Temp
°C
App
Temp
°C
Dew
Point
Rel
Hum
%
Delta-T
°C
Wind Press
QNH
hPa
Press
MSL
hPa
Rain
since 9 am
mm
Dir
 
Spd
km/h
Gust
km/h
Spd
kts
Gust
kts
13/11:30pm 8.3 6.9 7.4 94 0.4 S 4 6 2 3 1022.3 - 0.0
13/11:00pm 8.7 7.1 8.1 96 0.3 S 6 7 3 4 1022.0 - 0.0
13/10:30pm 9.5 7.8 8.5 93 0.5 S 7 9 4 5 1022.2 - 0.0
13/10:00pm 9.7 7.6 8.2 90 0.7 SSW 9 11 5 6 1022.5 - 0.0
13/09:30pm 12.2 9.1 9.0 81 1.6 SSW 15 17 8 9 1022.7 - 0.0
13/09:00pm 13.7 11.1 9.4 75 2.2 SSW 13 17 7 9 1022.7 1022.7 0.0
13/08:30pm 12.9 10.7 9.3 79 1.8 S 11 13 6 7 1022.6 - 0.0
13/08:00pm 12.3 10.4 8.9 80 1.7 S 9 11 5 6 1022.3 - 0.0
13/07:30pm 14.9 13.0 9.0 68 3.0 WSW 9 11 5 6 1021.9 - 0.0

Other Formats:

Comma delimited format used in spreadsheet applications
http://www.bom.gov.au/fwo/IDW60801/IDW60801.94610.axf

JavaScript Object Notation format (JSON) in row-major order
http://www.bom.gov.au/fwo/IDW60801/IDW60801.94610.json